createdAt,value
2023-05-25T00:00:12.237Z,0.00
2023-05-25T00:01:12.412Z,0.00
2023-05-25T00:02:12.221Z,0.00
2023-05-25T00:03:12.387Z,0.00
2023-05-25T00:04:12.298Z,0.00
2023-05-25T00:05:12.169Z,0.00
2023-05-25T00:06:12.165Z,0.00
2023-05-25T00:07:12.159Z,0.00
2023-05-25T00:08:12.125Z,0.00
2023-05-25T00:09:12.104Z,0.00
2023-05-25T00:10:12.101Z,0.00
2023-05-25T00:11:12.229Z,0.00
2023-05-25T00:12:12.065Z,0.00
2023-05-25T00:13:12.057Z,0.00
2023-05-25T00:14:12.051Z,0.00
2023-05-25T00:15:12.029Z,0.00
2023-05-25T00:16:12.009Z,0.00
2023-05-25T00:17:12.022Z,0.00
2023-05-25T00:18:12.134Z,0.00
2023-05-25T00:19:11.965Z,0.00
2023-05-25T00:20:11.984Z,0.00
2023-05-25T00:21:11.937Z,0.00
2023-05-25T00:22:11.949Z,0.00
2023-05-25T00:23:12.193Z,0.00
2023-05-25T00:24:11.904Z,0.00
2023-05-25T00:25:11.917Z,0.00
2023-05-25T00:26:11.884Z,0.00
2023-05-25T00:27:11.871Z,0.00
2023-05-25T00:28:11.869Z,0.00
2023-05-25T00:29:11.841Z,0.00
2023-05-25T00:30:11.818Z,0.00
2023-05-25T00:31:11.830Z,0.00
2023-05-25T00:32:11.793Z,0.00
2023-05-25T00:33:11.890Z,0.00
2023-05-25T00:34:11.761Z,0.00
2023-05-25T00:35:11.753Z,0.00
2023-05-25T00:36:11.733Z,0.00
2023-05-25T00:37:11.721Z,0.00
2023-05-25T00:38:11.707Z,0.00
2023-05-25T00:39:11.785Z,0.00
2023-05-25T00:40:11.690Z,0.00
2023-05-25T00:41:11.673Z,0.00
2023-05-25T00:42:11.674Z,0.00
2023-05-25T00:43:11.637Z,0.00
2023-05-25T00:44:11.642Z,0.00
2023-05-25T00:45:11.809Z,0.00
2023-05-25T00:46:11.613Z,0.00
2023-05-25T00:47:11.586Z,0.00
2023-05-25T00:48:11.581Z,0.00
2023-05-25T00:49:11.556Z,0.00
2023-05-25T00:50:11.543Z,0.00
2023-05-25T00:51:11.531Z,0.00
2023-05-25T00:52:11.522Z,0.00
2023-05-25T00:53:11.502Z,0.00
2023-05-25T00:54:11.511Z,0.00
2023-05-25T00:55:11.515Z,0.00
2023-05-25T00:56:11.460Z,0.00
2023-05-25T00:57:11.449Z,0.00
2023-05-25T00:58:11.487Z,0.00
2023-05-25T00:59:11.425Z,0.00
2023-05-25T01:00:11.499Z,0.00
2023-05-25T01:01:11.389Z,0.00
2023-05-25T01:02:11.447Z,0.00
2023-05-25T01:03:11.504Z,0.00
2023-05-25T01:04:11.541Z,0.00
2023-05-25T01:05:11.337Z,0.00
2023-05-25T01:06:11.327Z,0.00
2023-05-25T01:07:11.587Z,0.00
2023-05-25T01:08:11.294Z,0.00
2023-05-25T01:09:11.289Z,0.00
2023-05-25T01:10:11.273Z,0.00
2023-05-25T01:11:11.281Z,0.00
2023-05-25T01:12:11.241Z,0.00
2023-05-25T01:13:11.229Z,0.00
2023-05-25T01:14:11.211Z,0.00
2023-05-25T01:15:11.196Z,0.00
2023-05-25T01:16:11.263Z,0.00
2023-05-25T01:17:11.168Z,0.00
2023-05-25T01:18:11.155Z,0.00
2023-05-25T01:19:11.136Z,0.00
2023-05-25T01:20:12.128Z,0.00
2023-05-25T01:21:11.118Z,0.00
2023-05-25T01:22:11.102Z,0.00
2023-05-25T01:23:11.097Z,0.00
2023-05-25T01:24:11.072Z,0.00
2023-05-25T01:25:11.056Z,0.00
2023-05-25T01:26:11.046Z,0.00
2023-05-25T01:27:11.053Z,0.00
2023-05-25T01:28:11.019Z,0.00
2023-05-25T01:29:11.308Z,0.00
2023-05-25T01:30:10.995Z,0.00
2023-05-25T01:31:10.974Z,0.00
2023-05-25T01:32:10.991Z,0.00
2023-05-25T01:33:11.075Z,0.00
2023-05-25T01:34:10.949Z,0.00
2023-05-25T01:35:10.920Z,0.00
2023-05-25T01:36:10.913Z,0.00
2023-05-25T01:37:10.895Z,0.00
2023-05-25T01:38:10.879Z,0.00
2023-05-25T01:39:10.873Z,0.00
2023-05-25T01:40:10.853Z,0.00
2023-05-25T01:41:10.837Z,0.00
2023-05-25T01:42:10.822Z,0.00
2023-05-25T01:43:10.838Z,0.00
2023-05-25T01:44:10.798Z,0.00
2023-05-25T01:45:10.800Z,0.00
2023-05-25T01:46:10.853Z,0.00
2023-05-25T01:47:10.758Z,0.00
2023-05-25T01:48:10.779Z,0.00
2023-05-25T01:49:10.737Z,0.00
2023-05-25T01:50:10.722Z,0.00
2023-05-25T01:51:10.907Z,0.00
2023-05-25T01:52:10.739Z,0.00
2023-05-25T01:53:10.679Z,0.00
2023-05-25T01:54:10.668Z,0.00
2023-05-25T01:55:10.647Z,0.00
2023-05-25T01:56:10.640Z,0.00
2023-05-25T01:57:10.625Z,0.00
2023-05-25T01:58:10.620Z,0.00
2023-05-25T01:59:10.631Z,0.00
2023-05-25T02:00:10.589Z,0.00
2023-05-25T02:01:10.628Z,0.00
2023-05-25T02:02:10.552Z,0.00
2023-05-25T02:03:10.640Z,0.00
2023-05-25T02:04:10.563Z,0.00
2023-05-25T02:05:10.513Z,0.00
2023-05-25T02:06:10.503Z,0.00
2023-05-25T02:07:10.487Z,0.00
2023-05-25T02:08:10.472Z,0.00
2023-05-25T02:09:10.463Z,0.00
2023-05-25T02:10:10.457Z,0.00
2023-05-25T02:11:10.433Z,0.00
2023-05-25T02:12:10.429Z,0.00
2023-05-25T02:13:10.412Z,0.00
2023-05-25T02:14:10.397Z,0.00
2023-05-25T02:15:10.404Z,0.00
2023-05-25T02:16:10.466Z,0.00
2023-05-25T02:17:10.356Z,0.00
2023-05-25T02:18:10.341Z,0.00
2023-05-25T02:19:10.333Z,0.00
2023-05-25T02:20:10.333Z,0.00
2023-05-25T02:21:10.298Z,0.00
2023-05-25T02:22:10.292Z,0.00
2023-05-25T02:23:10.270Z,0.00
2023-05-25T02:24:10.260Z,0.00
2023-05-25T02:25:10.248Z,0.00
2023-05-25T02:26:10.242Z,0.00
2023-05-25T02:27:10.220Z,0.00
2023-05-25T02:28:10.207Z,0.00
2023-05-25T02:29:10.195Z,0.00
2023-05-25T02:30:10.196Z,0.00
2023-05-25T02:31:10.220Z,0.00
2023-05-25T02:32:10.149Z,0.00
2023-05-25T02:33:10.145Z,0.00
2023-05-25T02:34:10.133Z,0.00
2023-05-25T02:35:10.208Z,0.00
2023-05-25T02:36:10.095Z,0.00
2023-05-25T02:37:10.087Z,0.00
2023-05-25T02:38:10.085Z,0.00
2023-05-25T02:39:10.055Z,0.00
2023-05-25T02:40:10.046Z,0.00
2023-05-25T02:41:10.032Z,0.00
2023-05-25T02:42:10.022Z,0.00
2023-05-25T02:43:10.015Z,0.00
2023-05-25T02:44:10.001Z,0.00
2023-05-25T02:45:10.226Z,0.00
2023-05-25T02:46:09.986Z,0.00
2023-05-25T02:47:10.038Z,0.00
2023-05-25T02:48:09.941Z,0.00
2023-05-25T02:49:09.915Z,0.00
2023-05-25T02:50:09.925Z,0.00
2023-05-25T02:51:09.896Z,0.00
2023-05-25T02:52:09.879Z,0.00
2023-05-25T02:53:09.861Z,0.00
2023-05-25T02:54:09.850Z,0.00
2023-05-25T02:55:09.841Z,0.00
2023-05-25T02:56:09.828Z,0.00
2023-05-25T02:57:09.813Z,0.00
2023-05-25T02:58:09.794Z,0.00
2023-05-25T02:59:09.786Z,0.00
2023-05-25T03:00:09.767Z,0.00
2023-05-25T03:01:09.772Z,0.00
2023-05-25T03:02:09.749Z,0.00
2023-05-25T03:03:09.958Z,4.00
2023-05-25T03:04:09.756Z,4.00
2023-05-25T03:05:09.710Z,0.00
2023-05-25T03:06:09.696Z,0.00
2023-05-25T03:07:09.676Z,4.00
2023-05-25T03:08:09.668Z,4.00
2023-05-25T03:09:09.728Z,4.00
2023-05-25T03:10:09.901Z,4.00
2023-05-25T03:11:09.630Z,8.00
2023-05-25T03:12:09.608Z,4.00
2023-05-25T03:13:09.599Z,8.00
2023-05-25T03:14:09.579Z,8.00
2023-05-25T03:15:09.572Z,8.00
2023-05-25T03:16:09.623Z,8.00
2023-05-25T03:17:09.536Z,12.00
2023-05-25T03:18:09.530Z,12.00
2023-05-25T03:19:09.585Z,16.00
2023-05-25T03:20:09.534Z,16.00
2023-05-25T03:21:09.485Z,20.00
2023-05-25T03:22:09.477Z,20.00
2023-05-25T03:23:09.462Z,28.00
2023-05-25T03:24:09.447Z,32.00
2023-05-25T03:25:09.434Z,32.00
2023-05-25T03:26:09.417Z,36.00
2023-05-25T03:27:09.408Z,40.00
2023-05-25T03:28:09.409Z,44.00
2023-05-25T03:29:09.393Z,52.00
2023-05-25T03:30:09.359Z,56.00
2023-05-25T03:31:09.363Z,60.00
2023-05-25T03:32:09.366Z,68.00
2023-05-25T03:33:09.372Z,76.00
2023-05-25T03:34:09.313Z,84.00
2023-05-25T03:35:09.325Z,96.00
2023-05-25T03:36:09.285Z,104.00
2023-05-25T03:37:09.271Z,112.00
2023-05-25T03:38:09.253Z,120.00
2023-05-25T03:39:09.446Z,132.00
2023-05-25T03:40:09.230Z,140.00
2023-05-25T03:41:09.211Z,152.00
2023-05-25T03:42:09.195Z,160.00
2023-05-25T03:43:09.187Z,172.00
2023-05-25T03:44:09.175Z,180.00
2023-05-25T03:45:09.167Z,188.00
2023-05-25T03:46:09.159Z,200.00
2023-05-25T03:47:09.140Z,208.00
2023-05-25T03:48:09.121Z,224.00
2023-05-25T03:49:09.110Z,236.00
2023-05-25T03:50:09.098Z,248.00
2023-05-25T03:51:09.106Z,260.00
2023-05-25T03:52:09.062Z,276.00
2023-05-25T03:53:09.055Z,288.00
2023-05-25T03:54:09.038Z,300.00
2023-05-25T03:55:09.022Z,320.00
2023-05-25T03:56:09.004Z,332.00
2023-05-25T03:57:08.994Z,348.00
2023-05-25T03:58:08.976Z,368.00
2023-05-25T03:59:09.168Z,392.00
2023-05-25T04:00:08.955Z,416.00
2023-05-25T04:01:08.938Z,444.00
2023-05-25T04:02:08.977Z,480.00
2023-05-25T04:03:08.966Z,512.00
2023-05-25T04:04:08.951Z,536.00
2023-05-25T04:05:08.885Z,556.00
2023-05-25T04:06:08.903Z,584.00
2023-05-25T04:07:08.882Z,608.00
2023-05-25T04:08:08.845Z,644.00
2023-05-25T04:09:09.027Z,672.00
2023-05-25T04:10:08.818Z,700.00
2023-05-25T04:11:08.804Z,752.00
2023-05-25T04:12:08.789Z,796.00
2023-05-25T04:13:08.776Z,832.00
2023-05-25T04:14:08.760Z,868.00
2023-05-25T04:15:08.748Z,912.00
2023-05-25T04:16:09.767Z,936.00
2023-05-25T04:17:08.729Z,952.00
2023-05-25T04:18:08.868Z,944.00
2023-05-25T04:19:08.690Z,948.00
2023-05-25T04:20:08.726Z,936.00
2023-05-25T04:21:08.976Z,924.00
2023-05-25T04:22:08.653Z,920.00
2023-05-25T04:23:08.661Z,932.00
2023-05-25T04:24:08.626Z,948.00
2023-05-25T04:25:08.609Z,964.00
2023-05-25T04:26:08.600Z,980.00
2023-05-25T04:27:08.595Z,1004.00
2023-05-25T04:28:08.639Z,1024.00
2023-05-25T04:29:08.560Z,1048.00
2023-05-25T04:30:08.546Z,1068.00
2023-05-25T04:31:08.551Z,1092.00
2023-05-25T04:32:08.553Z,1116.00
2023-05-25T04:33:08.588Z,1152.00
2023-05-25T04:34:08.532Z,1176.00
2023-05-25T04:35:08.474Z,1208.00
2023-05-25T04:36:08.463Z,1236.00
2023-05-25T04:37:08.458Z,1264.00
2023-05-25T04:38:08.481Z,1292.00
2023-05-25T04:39:08.454Z,1316.00
2023-05-25T04:40:08.405Z,1348.00
2023-05-25T04:41:08.394Z,1368.00
2023-05-25T04:42:08.387Z,1392.00
2023-05-25T04:43:08.361Z,1400.00
2023-05-25T04:44:10.145Z,1448.00
2023-05-25T04:45:08.345Z,1476.00
2023-05-25T04:46:08.391Z,1496.00
2023-05-25T04:47:08.305Z,1536.00
2023-05-25T04:48:08.318Z,1560.00
2023-05-25T04:49:08.450Z,1592.00
2023-05-25T04:50:08.301Z,1616.00
2023-05-25T04:51:08.283Z,1636.00
2023-05-25T04:52:08.243Z,1660.00
2023-05-25T04:53:08.254Z,1680.00
2023-05-25T04:54:08.217Z,1700.00
2023-05-25T04:55:08.244Z,1720.00
2023-05-25T04:56:08.186Z,1752.00
2023-05-25T04:57:08.176Z,1780.00
2023-05-25T04:58:08.156Z,1816.00
2023-05-25T04:59:08.147Z,1844.00
2023-05-25T05:00:08.134Z,1876.00
2023-05-25T05:01:08.132Z,1908.00
2023-05-25T05:02:08.101Z,1932.00
2023-05-25T05:03:08.130Z,1960.00
2023-05-25T05:04:08.246Z,1900.00
2023-05-25T05:05:08.072Z,1968.00
2023-05-25T05:06:08.055Z,2028.00
2023-05-25T05:07:08.039Z,2052.00
2023-05-25T05:08:08.041Z,2080.00
2023-05-25T05:09:08.018Z,2104.00
2023-05-25T05:10:08.018Z,2124.00
2023-05-25T05:11:08.015Z,2148.00
2023-05-25T05:12:08.953Z,2168.00
2023-05-25T05:13:07.961Z,2200.00
2023-05-25T05:14:07.956Z,2232.00
2023-05-25T05:15:07.933Z,2264.00
2023-05-25T05:16:07.971Z,2288.00
2023-05-25T05:17:07.917Z,2324.00
2023-05-25T05:18:07.923Z,2348.00
2023-05-25T05:19:07.879Z,2392.00
2023-05-25T05:20:07.889Z,2428.00
2023-05-25T05:21:07.863Z,2468.00
2023-05-25T05:22:07.829Z,2500.00
2023-05-25T05:23:07.821Z,2540.00
2023-05-25T05:24:07.810Z,2592.00
2023-05-25T05:25:07.815Z,2668.00
2023-05-25T05:26:07.780Z,2892.00
2023-05-25T05:27:07.793Z,2880.00
2023-05-25T05:28:07.760Z,2576.00
2023-05-25T05:29:07.739Z,2508.00
2023-05-25T05:30:07.765Z,2648.00
2023-05-25T05:31:07.738Z,2804.00
2023-05-25T05:32:07.696Z,3244.00
2023-05-25T05:33:07.788Z,2720.00
2023-05-25T05:34:07.881Z,2804.00
2023-05-25T05:35:07.662Z,3220.00
2023-05-25T05:36:07.648Z,3440.00
2023-05-25T05:37:07.656Z,3480.00
2023-05-25T05:38:07.613Z,3752.00
2023-05-25T05:39:07.639Z,3556.00
2023-05-25T05:40:07.596Z,3424.00
2023-05-25T05:41:07.569Z,3560.00
2023-05-25T05:42:07.554Z,3912.00
2023-05-25T05:43:07.566Z,3992.00
2023-05-25T05:44:07.532Z,4540.00
2023-05-25T05:45:07.522Z,4248.00
2023-05-25T05:46:07.513Z,4320.00
2023-05-25T05:47:07.491Z,4696.00
2023-05-25T05:48:07.525Z,4240.00
2023-05-25T05:49:07.464Z,4516.00
2023-05-25T05:50:07.448Z,4804.00
2023-05-25T05:51:07.433Z,4996.00
2023-05-25T05:52:07.421Z,5504.00
2023-05-25T05:53:07.403Z,5560.00
2023-05-25T05:54:07.395Z,5932.00
2023-05-25T05:55:07.380Z,5728.00
2023-05-25T05:56:07.398Z,5452.00
2023-05-25T05:57:07.351Z,5976.00
2023-05-25T05:58:07.330Z,5536.00
2023-05-25T05:59:07.436Z,5792.00
2023-05-25T06:00:07.312Z,5136.00
2023-05-25T06:01:07.302Z,5384.00
2023-05-25T06:02:07.312Z,5580.00
2023-05-25T06:03:07.306Z,5392.00
2023-05-25T06:04:07.257Z,5108.00
2023-05-25T06:05:07.274Z,4780.00
2023-05-25T06:06:07.286Z,4308.00
2023-05-25T06:07:07.229Z,4168.00
2023-05-25T06:08:07.414Z,4128.00
2023-05-25T06:09:07.189Z,4200.00
2023-05-25T06:10:07.169Z,3924.00
2023-05-25T06:11:07.162Z,3868.00
2023-05-25T06:12:07.157Z,3636.00
2023-05-25T06:13:07.335Z,3620.00
2023-05-25T06:14:07.125Z,3752.00
2023-05-25T06:15:07.137Z,3512.00
2023-05-25T06:16:07.161Z,3360.00
2023-05-25T06:17:07.207Z,3340.00
2023-05-25T06:18:07.121Z,3364.00
2023-05-25T06:19:07.071Z,3632.00
2023-05-25T06:20:07.074Z,3952.00
2023-05-25T06:21:07.033Z,4252.00
2023-05-25T06:22:07.015Z,3944.00
2023-05-25T06:23:06.996Z,4500.00
2023-05-25T06:24:06.985Z,5304.00
2023-05-25T06:25:06.974Z,9468.00
2023-05-25T06:26:06.968Z,7812.00
2023-05-25T06:27:06.946Z,8728.00
2023-05-25T06:28:06.927Z,7572.00
2023-05-25T06:29:06.922Z,9760.00
2023-05-25T06:30:06.900Z,10076.00
2023-05-25T06:31:06.970Z,10612.00
2023-05-25T06:32:06.909Z,10060.00
2023-05-25T06:33:06.884Z,9740.00
2023-05-25T06:34:06.844Z,10572.00
2023-05-25T06:35:08.057Z,9760.00
2023-05-25T06:36:06.823Z,21280.00
2023-05-25T06:37:06.807Z,9032.00
2023-05-25T06:38:06.791Z,11680.00
2023-05-25T06:39:06.782Z,10580.00
2023-05-25T06:40:06.762Z,9644.00
2023-05-25T06:41:06.774Z,9448.00
2023-05-25T06:42:06.737Z,8864.00
2023-05-25T06:43:06.744Z,8740.00
2023-05-25T06:44:06.721Z,8928.00
2023-05-25T06:45:06.699Z,13268.00
2023-05-25T06:46:06.736Z,7748.00
2023-05-25T06:47:06.721Z,7588.00
2023-05-25T06:48:06.700Z,8004.00
2023-05-25T06:49:06.654Z,8080.00
2023-05-25T06:50:06.633Z,7716.00
2023-05-25T06:51:06.619Z,7392.00
2023-05-25T06:52:06.609Z,7400.00
2023-05-25T06:53:06.584Z,7448.00
2023-05-25T06:54:06.589Z,7428.00
2023-05-25T06:55:06.565Z,7100.00
2023-05-25T06:56:06.552Z,6732.00
2023-05-25T06:57:06.632Z,6344.00
2023-05-25T06:58:06.519Z,6204.00
2023-05-25T06:59:06.505Z,5520.00
2023-05-25T07:00:06.596Z,5084.00
2023-05-25T07:01:06.490Z,5240.00
2023-05-25T07:02:06.473Z,4656.00
2023-05-25T07:03:06.523Z,4360.00
2023-05-25T07:04:06.437Z,4188.00
2023-05-25T07:05:06.468Z,4164.00
2023-05-25T07:06:06.408Z,4104.00
2023-05-25T07:07:06.397Z,4096.00
2023-05-25T07:08:06.451Z,3876.00
2023-05-25T07:09:06.388Z,3604.00
2023-05-25T07:10:06.372Z,3408.00
2023-05-25T07:11:06.358Z,3680.00
2023-05-25T07:12:06.338Z,3924.00
2023-05-25T07:13:06.320Z,3932.00
2023-05-25T07:14:06.317Z,4004.00
2023-05-25T07:15:06.294Z,4104.00
2023-05-25T07:16:06.310Z,4260.00
2023-05-25T07:17:06.268Z,4224.00
2023-05-25T07:18:06.280Z,4236.00
2023-05-25T07:19:06.278Z,4372.00
2023-05-25T07:20:06.445Z,4732.00
2023-05-25T07:21:06.206Z,4756.00
2023-05-25T07:22:06.197Z,4496.00
2023-05-25T07:23:06.180Z,4680.00
2023-05-25T07:24:06.181Z,4848.00
2023-05-25T07:25:06.186Z,5080.00
2023-05-25T07:26:06.486Z,5308.00
2023-05-25T07:27:06.134Z,5492.00
2023-05-25T07:28:06.116Z,5292.00
2023-05-25T07:29:06.106Z,5520.00
2023-05-25T07:30:06.097Z,5520.00
2023-05-25T07:31:06.133Z,5772.00
2023-05-25T07:32:06.087Z,5712.00
2023-05-25T07:33:06.093Z,6332.00
2023-05-25T07:34:06.042Z,7068.00
2023-05-25T07:35:06.061Z,7604.00
2023-05-25T07:36:06.027Z,7788.00
2023-05-25T07:37:06.047Z,8180.00
2023-05-25T07:38:05.982Z,8688.00
2023-05-25T07:39:05.970Z,9300.00
2023-05-25T07:40:05.956Z,10240.00
2023-05-25T07:41:05.936Z,10956.00
2023-05-25T07:42:05.976Z,10996.00
2023-05-25T07:43:08.232Z,10552.00
2023-05-25T07:44:05.906Z,9960.00
2023-05-25T07:45:05.884Z,13480.00
2023-05-25T07:46:05.873Z,13656.00
2023-05-25T07:47:05.959Z,13352.00
2023-05-25T07:48:05.891Z,13300.00
2023-05-25T07:49:05.826Z,16736.00
2023-05-25T07:50:05.820Z,41536.00
2023-05-25T07:51:05.822Z,27744.00
2023-05-25T07:52:05.799Z,30784.00
2023-05-25T07:53:05.784Z,22400.00
2023-05-25T07:54:05.772Z,17120.00
2023-05-25T07:55:05.786Z,25856.00
2023-05-25T07:56:06.565Z,37152.00
2023-05-25T07:57:05.723Z,49824.00
2023-05-25T07:58:05.709Z,52288.00
2023-05-25T07:59:05.704Z,54720.00
2023-05-25T08:00:05.685Z,54912.00
2023-05-25T08:01:05.663Z,55360.00
2023-05-25T08:02:05.899Z,58176.00
2023-05-25T08:03:05.735Z,57920.00
2023-05-25T08:04:05.729Z,57824.00
2023-05-25T08:05:06.117Z,56896.00
2023-05-25T08:06:05.599Z,59488.00
2023-05-25T08:07:05.723Z,60352.00
2023-05-25T08:08:05.574Z,60160.00
2023-05-25T08:09:05.555Z,60512.00
2023-05-25T08:10:05.545Z,53856.00
2023-05-25T08:11:05.532Z,28096.00
2023-05-25T08:12:27.023Z,29824.00
2023-05-25T08:13:06.541Z,19808.00
2023-05-25T08:14:05.489Z,23488.00
2023-05-25T08:15:05.485Z,26816.00
2023-05-25T08:16:05.462Z,22656.00
2023-05-25T08:17:05.459Z,19808.00
2023-05-25T08:18:05.475Z,18496.00
2023-05-25T08:19:05.415Z,18912.00
2023-05-25T08:20:05.431Z,38720.00
2023-05-25T08:21:05.397Z,23008.00
2023-05-25T08:22:05.380Z,22272.00
2023-05-25T08:23:05.397Z,27936.00
2023-05-25T08:24:05.349Z,38304.00
2023-05-25T08:25:05.407Z,27360.00
2023-05-25T08:26:15.571Z,22464.00
2023-05-25T08:27:06.338Z,17408.00
2023-05-25T08:28:05.297Z,16896.00
2023-05-25T08:29:05.277Z,16768.00
2023-05-25T08:30:05.265Z,18464.00
2023-05-25T08:31:05.296Z,19360.00
2023-05-25T08:32:05.252Z,15520.00
2023-05-25T08:33:05.244Z,15968.00
2023-05-25T08:34:05.311Z,18592.00
2023-05-25T08:35:05.201Z,15040.00
2023-05-25T08:36:05.189Z,17280.00
2023-05-25T08:37:05.172Z,18112.00
2023-05-25T08:38:05.161Z,13916.00
2023-05-25T08:39:05.181Z,11784.00
2023-05-25T08:40:05.126Z,10040.00
2023-05-25T08:41:05.117Z,9508.00
2023-05-25T08:42:05.106Z,8600.00
2023-05-25T08:43:05.083Z,8200.00
2023-05-25T08:44:05.072Z,8132.00
2023-05-25T08:45:05.065Z,8224.00
2023-05-25T08:46:05.048Z,8240.00
2023-05-25T08:47:05.052Z,8228.00
2023-05-25T08:48:05.091Z,8480.00
2023-05-25T08:49:05.179Z,8888.00
2023-05-25T08:50:05.047Z,9216.00
2023-05-25T08:51:04.983Z,9272.00
2023-05-25T08:52:04.973Z,9644.00
2023-05-25T08:53:04.953Z,9220.00
2023-05-25T08:54:05.188Z,9148.00
2023-05-25T08:55:04.952Z,9320.00
2023-05-25T08:56:04.939Z,9736.00
2023-05-25T08:57:04.911Z,10132.00
2023-05-25T08:58:04.886Z,10192.00
2023-05-25T08:59:06.703Z,10136.00
2023-05-25T09:00:04.882Z,10272.00
2023-05-25T09:01:04.852Z,10504.00
2023-05-25T09:02:04.870Z,10924.00
2023-05-25T09:03:04.934Z,11916.00
2023-05-25T09:04:04.851Z,13164.00
2023-05-25T09:05:04.833Z,13944.00
2023-05-25T09:06:04.796Z,14684.00
2023-05-25T09:07:10.777Z,17408.00
2023-05-25T09:08:05.772Z,23072.00
2023-05-25T09:09:04.748Z,27936.00
2023-05-25T09:10:04.831Z,29568.00
2023-05-25T09:11:04.729Z,29472.00
2023-05-25T09:12:04.706Z,36960.00
2023-05-25T09:13:19.886Z,35456.00
2023-05-25T09:14:05.709Z,28192.00
2023-05-25T09:15:04.853Z,25504.00
2023-05-25T09:16:04.669Z,21248.00
2023-05-25T09:17:04.642Z,20576.00
2023-05-25T09:18:05.438Z,21280.00
2023-05-25T09:19:04.620Z,22176.00
2023-05-25T09:20:04.752Z,17952.00
2023-05-25T09:21:04.620Z,15712.00
2023-05-25T09:22:14.706Z,17152.00
2023-05-25T09:23:05.578Z,18336.00
2023-05-25T09:24:04.546Z,34432.00
2023-05-25T09:25:04.836Z,48000.00
2023-05-25T09:26:04.513Z,44128.00
2023-05-25T09:27:04.525Z,33920.00
2023-05-25T09:28:17.665Z,17536.00
2023-05-25T09:29:05.511Z,20544.00
2023-05-25T09:30:04.463Z,19008.00
2023-05-25T09:31:04.448Z,24864.00
2023-05-25T09:32:04.463Z,21952.00
2023-05-25T09:33:04.453Z,29440.00
2023-05-25T09:34:04.407Z,23552.00
2023-05-25T09:35:04.396Z,18816.00
2023-05-25T09:36:04.389Z,19552.00
2023-05-25T09:37:04.613Z,18368.00
2023-05-25T09:38:04.519Z,18016.00
2023-05-25T09:39:04.460Z,18656.00
2023-05-25T09:40:04.357Z,19296.00
2023-05-25T09:41:04.324Z,23264.00
2023-05-25T09:42:04.321Z,17632.00
2023-05-25T09:43:04.399Z,33568.00
2023-05-25T09:44:10.965Z,33792.00
2023-05-25T09:45:05.285Z,17440.00
2023-05-25T09:46:04.329Z,21696.00
2023-05-25T09:47:04.242Z,22816.00
2023-05-25T09:48:04.300Z,21856.00
2023-05-25T09:49:04.207Z,48928.00
2023-05-25T09:50:04.190Z,44704.00
2023-05-25T09:51:04.189Z,31072.00
2023-05-25T09:52:04.199Z,34016.00
2023-05-25T09:53:04.160Z,23552.00
2023-05-25T09:54:04.160Z,34464.00
2023-05-25T09:55:04.139Z,36128.00
2023-05-25T09:56:04.503Z,65856.00
2023-05-25T09:57:04.159Z,77312.00
2023-05-25T09:58:04.096Z,29568.00
2023-05-25T09:59:04.105Z,54272.00
2023-05-25T10:00:04.068Z,68768.00
2023-05-25T10:01:04.089Z,68992.00
2023-05-25T10:02:04.096Z,64832.00
2023-05-25T10:03:04.041Z,61760.00
2023-05-25T10:04:05.099Z,67328.00
2023-05-25T10:05:04.136Z,26016.00
2023-05-25T10:06:03.998Z,82368.00
2023-05-25T10:07:03.973Z,59616.00
2023-05-25T10:08:03.980Z,68896.00
2023-05-25T10:09:03.944Z,33152.00
2023-05-25T10:10:03.944Z,69504.00
2023-05-25T10:11:03.939Z,60544.00
2023-05-25T10:12:03.918Z,19872.00
2023-05-25T10:13:03.887Z,31104.00
2023-05-25T10:14:03.966Z,24224.00
2023-05-25T10:15:03.917Z,16160.00
2023-05-25T10:16:03.893Z,21056.00
2023-05-25T10:17:03.915Z,25120.00
2023-05-25T10:18:03.910Z,42848.00
2023-05-25T10:19:03.829Z,44544.00
2023-05-25T10:20:03.840Z,42336.00
2023-05-25T10:21:04.372Z,23904.00
2023-05-25T10:22:03.776Z,41568.00
2023-05-25T10:23:03.774Z,75648.00
2023-05-25T10:24:03.746Z,49760.00
2023-05-25T10:25:03.756Z,55328.00
2023-05-25T10:26:03.716Z,18880.00
2023-05-25T10:27:14.641Z,13332.00
2023-05-25T10:28:04.718Z,37888.00
2023-05-25T10:29:03.707Z,53440.00
2023-05-25T10:30:03.929Z,23360.00
2023-05-25T10:31:03.724Z,41216.00
2023-05-25T10:32:03.782Z,61408.00
2023-05-25T10:33:03.712Z,61600.00
2023-05-25T10:34:03.613Z,22400.00
2023-05-25T10:35:03.602Z,18688.00
2023-05-25T10:37:03.571Z,67424.00
2023-05-25T10:38:03.568Z,22784.00
2023-05-25T10:39:03.551Z,15040.00
2023-05-25T10:40:03.536Z,19616.00
2023-05-25T10:41:03.530Z,66848.00
2023-05-25T10:42:03.520Z,44384.00
2023-05-25T10:43:03.518Z,35488.00
2023-05-25T10:44:03.499Z,22784.00
2023-05-25T10:45:03.486Z,38592.00
2023-05-25T10:46:03.464Z,14848.00
2023-05-25T10:47:03.523Z,12688.00
2023-05-25T10:48:03.464Z,12944.00
2023-05-25T10:49:03.412Z,12644.00
2023-05-25T10:50:03.419Z,13308.00
2023-05-25T10:51:03.386Z,14392.00
2023-05-25T10:52:03.379Z,12684.00
2023-05-25T10:53:03.382Z,18784.00
2023-05-25T10:54:03.348Z,16512.00
2023-05-25T10:55:03.331Z,15616.00
2023-05-25T10:56:03.349Z,21312.00
2023-05-25T10:57:03.312Z,16992.00
2023-05-25T10:58:03.302Z,19296.00
2023-05-25T10:59:03.300Z,21120.00
2023-05-25T11:00:03.276Z,45024.00
2023-05-25T11:01:03.430Z,36288.00
2023-05-25T11:02:03.407Z,35584.00
2023-05-25T11:03:03.317Z,21632.00
2023-05-25T11:04:03.309Z,22880.00
2023-05-25T11:05:03.205Z,33024.00
2023-05-25T11:06:03.199Z,54592.00
2023-05-25T11:07:03.203Z,56960.00
2023-05-25T11:08:03.166Z,21664.00
2023-05-25T11:09:03.171Z,19104.00
2023-05-25T11:10:03.140Z,18176.00
2023-05-25T11:11:03.127Z,18816.00
2023-05-25T11:12:03.140Z,15136.00
2023-05-25T11:13:03.100Z,14140.00
2023-05-25T11:14:03.124Z,14076.00
2023-05-25T11:15:03.094Z,13532.00
2023-05-25T11:16:03.076Z,12812.00
2023-05-25T11:17:03.100Z,11548.00
2023-05-25T11:18:03.093Z,10784.00
2023-05-25T11:19:03.037Z,10284.00
2023-05-25T11:20:03.062Z,9696.00
2023-05-25T11:21:03.297Z,8752.00
2023-05-25T11:22:02.976Z,8340.00
2023-05-25T11:23:03.041Z,8028.00
2023-05-25T11:24:03.028Z,7772.00
2023-05-25T11:25:03.076Z,7480.00
2023-05-25T11:26:02.989Z,7720.00
2023-05-25T11:27:02.986Z,8300.00
2023-05-25T11:28:02.994Z,8316.00
2023-05-25T11:29:02.959Z,8072.00
2023-05-25T11:30:02.871Z,8112.00
2023-05-25T11:31:02.899Z,8200.00
2023-05-25T11:32:02.950Z,8504.00
2023-05-25T11:33:02.862Z,9580.00
2023-05-25T11:34:02.840Z,10640.00
2023-05-25T11:35:03.097Z,9892.00
2023-05-25T11:36:02.798Z,12304.00
2023-05-25T11:37:02.804Z,10108.00
2023-05-25T11:38:02.769Z,11192.00
2023-05-25T11:39:06.899Z,12688.00
2023-05-25T11:40:03.765Z,10928.00
2023-05-25T11:41:02.723Z,10164.00
2023-05-25T11:42:02.706Z,9388.00
2023-05-25T11:43:02.698Z,8852.00
2023-05-25T11:44:02.952Z,8668.00
2023-05-25T11:45:02.674Z,8292.00
2023-05-25T11:46:02.700Z,8152.00
2023-05-25T11:47:02.651Z,8460.00
2023-05-25T11:48:02.689Z,8856.00
2023-05-25T11:49:02.620Z,9196.00
2023-05-25T11:50:02.624Z,9828.00
2023-05-25T11:51:02.617Z,10056.00
2023-05-25T11:52:02.583Z,10284.00
2023-05-25T11:53:02.663Z,10736.00
2023-05-25T11:54:02.563Z,10864.00
2023-05-25T11:55:02.540Z,11240.00
2023-05-25T11:56:08.125Z,10512.00
2023-05-25T11:57:02.537Z,10096.00
2023-05-25T11:58:02.492Z,9872.00
2023-05-25T11:59:02.486Z,9872.00
2023-05-25T12:00:02.486Z,9804.00
2023-05-25T12:01:02.460Z,9640.00
2023-05-25T12:02:02.507Z,9140.00
2023-05-25T12:03:02.605Z,9128.00
2023-05-25T12:04:02.467Z,8864.00
2023-05-25T12:05:02.511Z,8736.00
2023-05-25T12:06:02.410Z,8800.00
2023-05-25T12:07:02.413Z,8664.00
2023-05-25T12:08:02.405Z,8840.00
2023-05-25T12:09:02.356Z,9096.00
2023-05-25T12:10:02.348Z,9132.00
2023-05-25T12:11:02.353Z,9112.00
2023-05-25T12:12:02.316Z,9384.00
2023-05-25T12:13:02.314Z,9288.00
2023-05-25T12:14:02.297Z,9356.00
2023-05-25T12:15:02.269Z,9800.00
2023-05-25T12:16:02.255Z,10512.00
2023-05-25T12:17:02.276Z,12004.00
2023-05-25T12:18:02.266Z,12136.00
2023-05-25T12:19:02.230Z,11620.00
2023-05-25T12:20:02.335Z,11016.00